createdAt,value
2019-06-15T04:00:54.759Z,56.25
2019-06-15T04:01:54.934Z,61.88
2019-06-15T04:02:55.107Z,61.88
2019-06-15T04:03:55.288Z,61.88
2019-06-15T04:04:55.459Z,61.88
2019-06-15T04:05:55.633Z,61.88
2019-06-15T04:06:55.809Z,61.88
2019-06-15T04:07:55.976Z,67.50
2019-06-15T04:08:56.152Z,67.50
2019-06-15T04:09:56.325Z,67.50
2019-06-15T04:10:56.498Z,67.50
2019-06-15T04:11:56.673Z,73.13
2019-06-15T04:12:56.846Z,73.13
2019-06-15T04:13:57.024Z,73.13
2019-06-15T04:14:57.203Z,78.75
2019-06-15T04:15:57.371Z,78.75
2019-06-15T04:16:57.546Z,78.75
2019-06-15T04:17:57.720Z,84.38
2019-06-15T04:18:57.892Z,84.38
2019-06-15T04:19:58.067Z,90.00
2019-06-15T04:20:58.242Z,90.00
2019-06-15T04:21:58.423Z,95.63
2019-06-15T04:22:58.591Z,95.63
2019-06-15T04:23:58.765Z,101.25
2019-06-15T04:24:58.940Z,101.25
2019-06-15T04:25:59.123Z,106.88
2019-06-15T04:26:59.290Z,112.50
2019-06-15T04:27:59.463Z,112.50
2019-06-15T04:28:59.635Z,112.50
2019-06-15T04:29:59.810Z,118.13
2019-06-15T04:30:59.983Z,118.13
2019-06-15T04:32:00.162Z,118.13
2019-06-15T04:33:00.332Z,118.13
2019-06-15T04:34:00.507Z,118.13
2019-06-15T04:35:00.683Z,123.75
2019-06-15T04:36:00.863Z,123.75
2019-06-15T04:37:01.027Z,129.38
2019-06-15T04:38:01.202Z,135.00
2019-06-15T04:39:01.372Z,140.63
2019-06-15T04:40:01.547Z,146.25
2019-06-15T04:41:01.827Z,146.25
2019-06-15T04:42:01.895Z,146.25
2019-06-15T04:43:02.069Z,146.25
2019-06-15T04:44:02.242Z,146.25
2019-06-15T04:45:02.419Z,146.25
2019-06-15T04:46:02.591Z,146.25
2019-06-15T04:47:02.766Z,151.88
2019-06-15T04:48:02.942Z,151.88
2019-06-15T04:49:03.159Z,157.50
2019-06-15T04:50:03.287Z,157.50
2019-06-15T04:51:03.468Z,157.50
2019-06-15T04:52:03.661Z,157.50
2019-06-15T04:53:03.806Z,157.50
2019-06-15T04:54:03.980Z,157.50
2019-06-15T04:55:04.154Z,163.13
2019-06-15T04:56:04.330Z,168.75
2019-06-15T04:57:04.501Z,174.38
2019-06-15T04:58:04.676Z,180.00
2019-06-15T04:59:04.852Z,185.63
2019-06-15T05:00:05.028Z,185.63
2019-06-15T05:01:05.197Z,185.63
2019-06-15T05:02:05.376Z,185.63
2019-06-15T05:03:05.544Z,185.63
2019-06-15T05:04:05.718Z,174.38
2019-06-15T05:05:05.894Z,174.38
2019-06-15T05:06:06.067Z,174.38
2019-06-15T05:07:06.241Z,168.75
2019-06-15T05:08:06.415Z,168.75
2019-06-15T05:09:06.587Z,174.38
2019-06-15T05:10:06.759Z,174.38
2019-06-15T05:11:06.934Z,180.00
2019-06-15T05:12:07.106Z,185.63
2019-06-15T05:13:07.281Z,185.63
2019-06-15T05:14:07.458Z,191.25
2019-06-15T05:15:07.632Z,196.88
2019-06-15T05:16:07.808Z,196.88
2019-06-15T05:17:07.992Z,213.75
2019-06-15T05:18:08.157Z,219.38
2019-06-15T05:19:08.331Z,219.38
2019-06-15T05:20:08.505Z,219.38
2019-06-15T05:21:08.682Z,225.00
2019-06-15T05:22:08.854Z,225.00
2019-06-15T05:23:09.032Z,225.00
2019-06-15T05:24:09.206Z,225.00
2019-06-15T05:25:09.383Z,225.00
2019-06-15T05:26:09.553Z,230.63
2019-06-15T05:27:09.728Z,230.63
2019-06-15T05:28:09.901Z,236.25
2019-06-15T05:29:10.076Z,236.25
2019-06-15T05:30:10.254Z,236.25
2019-06-15T05:31:10.432Z,236.25
2019-06-15T05:32:10.597Z,241.88
2019-06-15T05:33:10.771Z,247.50
2019-06-15T05:34:10.953Z,247.50
2019-06-15T05:35:11.120Z,253.13
2019-06-15T05:36:11.297Z,258.75
2019-06-15T05:37:11.467Z,264.38
2019-06-15T05:38:11.644Z,270.00
2019-06-15T05:39:11.821Z,270.00
2019-06-15T05:40:11.987Z,275.63
2019-06-15T05:41:12.211Z,281.25
2019-06-15T05:42:12.338Z,286.88
2019-06-15T05:43:12.513Z,292.50
2019-06-15T05:44:12.686Z,298.13
2019-06-15T05:45:12.863Z,303.75
2019-06-15T05:46:13.037Z,309.38
2019-06-15T05:47:13.212Z,320.63
2019-06-15T05:48:13.408Z,326.25
2019-06-15T05:49:13.560Z,331.88
2019-06-15T05:50:13.737Z,337.50
2019-06-15T05:51:13.917Z,348.75
2019-06-15T05:52:14.107Z,354.38
2019-06-15T05:53:14.263Z,360.00
2019-06-15T05:54:14.439Z,360.00
2019-06-15T05:55:14.613Z,348.75
2019-06-15T05:56:14.788Z,326.25
2019-06-15T05:57:21.521Z,303.75
2019-06-15T05:58:15.138Z,275.63
2019-06-15T05:59:15.313Z,264.38
2019-06-15T06:00:15.488Z,264.38
2019-06-15T06:01:15.665Z,292.50
2019-06-15T06:02:15.869Z,303.75
2019-06-15T06:03:16.017Z,309.38
2019-06-15T06:04:16.194Z,303.75
2019-06-15T06:05:16.365Z,303.75
2019-06-15T06:06:16.545Z,309.38
2019-06-15T06:07:16.716Z,309.38
2019-06-15T06:08:16.892Z,309.38
2019-06-15T06:09:17.066Z,309.38
2019-06-15T06:10:17.244Z,309.38
2019-06-15T06:11:17.417Z,315.00
2019-06-15T06:12:17.592Z,315.00
2019-06-15T06:13:17.779Z,315.00
2019-06-15T06:14:17.943Z,320.63
2019-06-15T06:15:18.119Z,315.00
2019-06-15T06:16:18.295Z,320.63
2019-06-15T06:17:18.469Z,320.63
2019-06-15T06:18:18.647Z,320.63
2019-06-15T06:19:18.819Z,320.63
2019-06-15T06:20:18.999Z,326.25
2019-06-15T06:21:19.172Z,326.25
2019-06-15T06:22:19.345Z,331.88
2019-06-15T06:23:19.518Z,326.25
2019-06-15T06:24:19.695Z,331.88
2019-06-15T06:25:19.869Z,337.50
2019-06-15T06:26:20.043Z,331.88
2019-06-15T06:27:20.221Z,337.50
2019-06-15T06:28:20.397Z,337.50
2019-06-15T06:29:20.572Z,337.50
2019-06-15T06:30:20.746Z,337.50
2019-06-15T06:31:20.928Z,337.50
2019-06-15T06:32:21.099Z,337.50
2019-06-15T06:33:21.292Z,343.13
2019-06-15T06:34:21.460Z,343.13
2019-06-15T06:35:21.626Z,343.13
2019-06-15T06:36:21.801Z,343.13
2019-06-15T06:37:21.976Z,343.13
2019-06-15T06:38:22.155Z,348.75
2019-06-15T06:39:22.328Z,348.75
2019-06-15T06:40:22.511Z,348.75
2019-06-15T06:41:22.683Z,348.75
2019-06-15T06:42:22.855Z,348.75
2019-06-15T06:43:23.039Z,354.38
2019-06-15T06:44:23.207Z,354.38
2019-06-15T06:45:23.381Z,360.00
2019-06-15T06:46:23.560Z,360.00
2019-06-15T06:47:23.731Z,365.63
2019-06-15T06:48:23.908Z,365.63
2019-06-15T06:49:24.082Z,371.25
2019-06-15T06:50:24.256Z,371.25
2019-06-15T06:51:24.431Z,371.25
2019-06-15T06:52:24.606Z,376.88
2019-06-15T06:53:24.781Z,382.50
2019-06-15T06:54:24.954Z,376.88
2019-06-15T06:55:25.136Z,376.88
2019-06-15T06:56:25.311Z,382.50
2019-06-15T06:57:25.483Z,382.50
2019-06-15T06:58:25.657Z,382.50
2019-06-15T06:59:25.829Z,388.13
2019-06-15T07:00:26.001Z,388.13
2019-06-15T07:01:26.177Z,388.13
2019-06-15T07:02:26.350Z,388.13
2019-06-15T07:03:26.525Z,388.13
2019-06-15T07:04:26.700Z,393.75
2019-06-15T07:05:26.881Z,393.75
2019-06-15T07:06:27.053Z,393.75
2019-06-15T07:07:27.231Z,399.38
2019-06-15T07:08:27.396Z,399.38
2019-06-15T07:09:27.579Z,399.38
2019-06-15T07:10:27.754Z,405.00
2019-06-15T07:11:27.923Z,405.00
2019-06-15T07:12:28.091Z,399.38
2019-06-15T07:13:28.265Z,405.00
2019-06-15T07:14:28.454Z,405.00
2019-06-15T07:15:28.621Z,405.00
2019-06-15T07:16:28.798Z,405.00
2019-06-15T07:17:28.973Z,405.00
2019-06-15T07:18:29.150Z,405.00
2019-06-15T07:19:29.322Z,405.00
2019-06-15T07:20:29.497Z,410.63
2019-06-15T07:21:29.670Z,410.63
2019-06-15T07:22:29.847Z,410.63
2019-06-15T07:23:31.969Z,388.13
2019-06-15T07:24:30.201Z,399.38
2019-06-15T07:25:30.372Z,399.38
2019-06-15T07:26:30.547Z,365.63
2019-06-15T07:27:30.722Z,343.13
2019-06-15T07:28:30.915Z,371.25
2019-06-15T07:29:31.072Z,433.13
2019-06-15T07:30:31.288Z,433.13
2019-06-15T07:31:31.420Z,433.13
2019-06-15T07:32:31.594Z,433.13
2019-06-15T07:33:31.772Z,433.13
2019-06-15T07:34:31.952Z,433.13
2019-06-15T07:35:32.113Z,438.75
2019-06-15T07:36:32.302Z,444.38
2019-06-15T07:37:32.476Z,444.38
2019-06-15T07:38:32.658Z,444.38
2019-06-15T07:39:32.830Z,438.75
2019-06-15T07:40:33.005Z,416.25
2019-06-15T07:41:33.182Z,450.00
2019-06-15T07:42:33.359Z,450.00
2019-06-15T07:43:33.532Z,421.88
2019-06-15T07:44:33.715Z,450.00
2019-06-15T07:45:33.890Z,450.00
2019-06-15T07:46:34.083Z,455.63
2019-06-15T07:47:34.238Z,450.00
2019-06-15T07:48:34.415Z,450.00
2019-06-15T07:49:34.590Z,450.00
2019-06-15T07:50:34.767Z,450.00
2019-06-15T07:51:34.940Z,455.63
2019-06-15T07:52:35.117Z,461.25
2019-06-15T07:53:35.301Z,461.25
2019-06-15T07:54:36.296Z,466.88
2019-06-15T07:55:35.644Z,466.88
2019-06-15T07:56:35.828Z,461.25
2019-06-15T07:57:35.986Z,461.25
2019-06-15T07:58:36.164Z,455.63
2019-06-15T07:59:36.339Z,455.63
2019-06-15T08:00:36.515Z,455.63
2019-06-15T08:01:36.691Z,455.63
2019-06-15T08:02:36.870Z,455.63
2019-06-15T08:03:37.044Z,455.63
2019-06-15T08:04:37.219Z,461.25
2019-06-15T08:05:37.389Z,461.25
2019-06-15T08:06:37.574Z,466.88
2019-06-15T08:07:37.748Z,461.25
2019-06-15T08:08:37.933Z,466.88
2019-06-15T08:09:38.103Z,472.50
2019-06-15T08:10:38.280Z,466.88
2019-06-15T08:11:38.452Z,472.50
2019-06-15T08:12:38.630Z,466.88
2019-06-15T08:13:38.807Z,472.50
2019-06-15T08:14:38.997Z,478.13
2019-06-15T08:15:39.149Z,483.75
2019-06-15T08:16:39.327Z,500.63
2019-06-15T08:17:39.504Z,545.63
2019-06-15T08:18:39.679Z,540.00
2019-06-15T08:19:39.856Z,545.63
2019-06-15T08:20:40.039Z,528.75
2019-06-15T08:21:40.204Z,528.75
2019-06-15T08:22:40.375Z,528.75
2019-06-15T08:23:40.532Z,534.38
2019-06-15T08:24:40.749Z,556.88
2019-06-15T08:25:40.880Z,573.75
2019-06-15T08:26:41.053Z,573.75
2019-06-15T08:27:41.226Z,568.13
2019-06-15T08:28:41.394Z,410.63
2019-06-15T08:29:41.569Z,579.38
2019-06-15T08:30:41.775Z,590.63
2019-06-15T08:31:41.914Z,551.25
2019-06-15T08:32:42.092Z,506.25
2019-06-15T08:33:42.345Z,500.63
2019-06-15T08:34:42.422Z,506.25
2019-06-15T08:35:42.580Z,511.88
2019-06-15T08:36:42.761Z,495.00
2019-06-15T08:37:42.921Z,495.00
2019-06-15T08:38:43.093Z,495.00
2019-06-15T08:39:43.274Z,500.63
2019-06-15T08:40:43.432Z,495.00
2019-06-15T08:41:43.604Z,500.63
2019-06-15T08:42:43.873Z,495.00
2019-06-15T08:43:44.009Z,500.63
2019-06-15T08:44:44.181Z,500.63
2019-06-15T08:45:44.356Z,511.88
2019-06-15T08:46:44.532Z,540.00
2019-06-15T08:47:44.705Z,585.00
2019-06-15T08:48:44.881Z,585.00
2019-06-15T08:49:45.057Z,573.75
2019-06-15T08:50:45.258Z,585.00
2019-06-15T08:51:45.415Z,624.38
2019-06-15T08:52:45.581Z,624.38
2019-06-15T08:53:45.769Z,607.50
2019-06-15T08:54:45.933Z,596.25
2019-06-15T08:55:46.112Z,618.75
2019-06-15T08:56:46.285Z,675.00
2019-06-15T08:57:46.459Z,703.13
2019-06-15T08:58:55.007Z,770.63
2019-06-15T08:59:46.810Z,770.63
2019-06-15T09:00:46.986Z,579.38
2019-06-15T09:01:47.164Z,714.38
2019-06-15T09:02:47.336Z,714.38
2019-06-15T09:03:49.438Z,506.25
2019-06-15T09:04:47.741Z,669.38
2019-06-15T09:05:47.866Z,646.88
2019-06-15T09:06:48.075Z,630.00
2019-06-15T09:07:48.217Z,624.38
2019-06-15T09:08:48.403Z,596.25
2019-06-15T09:09:48.566Z,585.00
2019-06-15T09:10:48.747Z,585.00
2019-06-15T09:11:48.919Z,601.88
2019-06-15T09:12:49.107Z,607.50
2019-06-15T09:13:49.272Z,607.50
2019-06-15T09:14:49.451Z,646.88
2019-06-15T09:15:49.621Z,630.00
2019-06-15T09:16:49.797Z,652.50
2019-06-15T09:17:49.971Z,720.00
2019-06-15T09:18:50.146Z,765.00
2019-06-15T09:19:50.325Z,675.00
2019-06-15T09:20:50.620Z,759.38
2019-06-15T09:21:50.672Z,821.25
2019-06-15T09:22:50.849Z,916.88
2019-06-15T09:23:51.026Z,860.63
2019-06-15T09:24:51.203Z,916.88
2019-06-15T09:25:51.378Z,860.63
2019-06-15T09:26:51.552Z,765.00
2019-06-15T09:27:51.722Z,1023.75
2019-06-15T09:28:51.898Z,945.00
2019-06-15T09:29:52.074Z,1096.88
2019-06-15T09:30:52.249Z,922.50
2019-06-15T09:31:52.434Z,691.88
2019-06-15T09:32:52.606Z,736.88
2019-06-15T09:33:52.781Z,607.50
2019-06-15T09:34:52.954Z,489.38
2019-06-15T09:35:53.127Z,500.63
2019-06-15T09:36:53.304Z,495.00
2019-06-15T09:37:53.480Z,393.75
2019-06-15T09:38:53.655Z,354.38
2019-06-15T09:39:53.833Z,343.13
2019-06-15T09:40:54.010Z,343.13
2019-06-15T09:41:54.179Z,365.63
2019-06-15T09:42:54.356Z,399.38
2019-06-15T09:43:54.532Z,455.63
2019-06-15T09:44:54.710Z,511.88
2019-06-15T09:45:54.892Z,635.63
2019-06-15T09:46:55.064Z,804.38
2019-06-15T09:47:55.240Z,956.25
2019-06-15T09:48:55.418Z,916.88
2019-06-15T09:49:55.608Z,849.38
2019-06-15T09:50:55.774Z,838.13
2019-06-15T09:51:55.951Z,815.63
2019-06-15T09:52:56.124Z,736.88
2019-06-15T09:53:56.299Z,691.88
2019-06-15T09:54:56.478Z,669.38
2019-06-15T09:55:56.660Z,635.63
2019-06-15T09:56:56.837Z,517.50
2019-06-15T09:57:57.010Z,483.75
2019-06-15T09:58:57.187Z,551.25
2019-06-15T09:59:57.370Z,731.25
2019-06-15T10:00:57.545Z,888.75
2019-06-15T10:01:57.720Z,815.63
2019-06-15T10:02:57.901Z,787.50
2019-06-15T10:03:58.077Z,568.13
2019-06-15T10:04:58.255Z,399.38
2019-06-15T10:05:58.427Z,315.00
2019-06-15T10:06:58.602Z,315.00
2019-06-15T10:07:58.779Z,382.50
2019-06-15T10:08:58.954Z,466.88
2019-06-15T10:09:59.131Z,461.25
2019-06-15T10:10:59.309Z,343.13
2019-06-15T10:11:59.483Z,337.50
2019-06-15T10:12:59.661Z,393.75
2019-06-15T10:13:59.838Z,500.63
2019-06-15T10:15:00.026Z,545.63
2019-06-15T10:16:00.183Z,545.63
2019-06-15T10:17:00.487Z,590.63
2019-06-15T10:18:00.557Z,669.38
2019-06-15T10:19:00.736Z,714.38
2019-06-15T10:20:00.911Z,765.00
2019-06-15T10:21:01.087Z,860.63
2019-06-15T10:22:01.274Z,832.50
2019-06-15T10:23:01.440Z,871.88
2019-06-15T10:24:01.607Z,950.63
2019-06-15T10:25:01.998Z,1012.50
2019-06-15T10:26:01.954Z,860.63
2019-06-15T10:27:02.129Z,978.75
2019-06-15T10:28:02.297Z,2835.00
2019-06-15T10:29:02.475Z,939.38
2019-06-15T10:30:02.651Z,2469.38
2019-06-15T10:31:02.830Z,2930.63
2019-06-15T10:32:03.007Z,1141.88
2019-06-15T10:33:03.183Z,1029.38
2019-06-15T10:34:03.398Z,2795.63
2019-06-15T10:35:03.538Z,2874.38
2019-06-15T10:36:03.720Z,2908.13
2019-06-15T10:37:03.892Z,3009.38
2019-06-15T10:38:04.063Z,815.63
2019-06-15T10:39:04.246Z,3166.88
2019-06-15T10:40:04.414Z,3189.38
2019-06-15T10:41:04.586Z,3228.75
2019-06-15T10:42:04.762Z,3330.00
2019-06-15T10:43:04.938Z,3273.75
2019-06-15T10:44:05.118Z,3251.25
2019-06-15T10:45:05.301Z,3144.38
2019-06-15T10:46:05.469Z,2570.63
2019-06-15T10:47:05.647Z,618.75
2019-06-15T10:48:05.831Z,1220.63
2019-06-15T10:49:06.003Z,2953.13
2019-06-15T10:50:06.177Z,2981.25
2019-06-15T10:51:06.354Z,2998.13
2019-06-15T10:52:06.532Z,3009.38
2019-06-15T10:53:06.712Z,3065.63
2019-06-15T10:54:06.897Z,3105.00
2019-06-15T10:55:07.064Z,3144.38
2019-06-15T10:56:07.241Z,2458.13
2019-06-15T10:57:07.421Z,3144.38
2019-06-15T10:58:07.601Z,3043.13
2019-06-15T10:59:07.823Z,3099.38
2019-06-15T11:00:07.955Z,3138.75
2019-06-15T11:01:08.132Z,3341.25
2019-06-15T11:02:08.316Z,3431.25
2019-06-15T11:03:08.493Z,3459.38
2019-06-15T11:04:08.672Z,3510.00
2019-06-15T11:05:08.895Z,1389.38
2019-06-15T11:06:09.031Z,3566.25
2019-06-15T11:07:09.208Z,3605.63
2019-06-15T11:08:09.389Z,3639.38
2019-06-15T11:09:09.593Z,990.00
2019-06-15T11:10:09.757Z,3296.25
2019-06-15T11:11:09.926Z,618.75
2019-06-15T11:12:10.103Z,3178.13
2019-06-15T11:13:10.286Z,1316.25
2019-06-15T11:14:10.471Z,2745.00
2019-06-15T11:15:10.648Z,3234.38
2019-06-15T11:16:10.884Z,3358.13
2019-06-15T11:17:11.010Z,3397.50
2019-06-15T11:18:11.190Z,3510.00
2019-06-15T11:19:11.371Z,3538.13
2019-06-15T11:20:11.553Z,3487.50
2019-06-15T11:21:11.731Z,3583.13
2019-06-15T11:22:11.919Z,3690.00
2019-06-15T11:23:12.091Z,3065.63
2019-06-15T11:24:12.278Z,3740.63
2019-06-15T11:25:12.453Z,3611.25
2019-06-15T11:26:12.629Z,3678.75
2019-06-15T11:27:12.828Z,3442.50
2019-06-15T11:28:12.996Z,2902.50
2019-06-15T11:29:13.178Z,1625.63
2019-06-15T11:30:14.615Z,3577.50
2019-06-15T11:31:13.552Z,3600.00
2019-06-15T11:32:13.778Z,3718.13
2019-06-15T11:33:13.922Z,3611.25
2019-06-15T11:34:14.093Z,3600.00
2019-06-15T11:35:14.275Z,2683.13
2019-06-15T11:36:14.457Z,1372.50
2019-06-15T11:37:14.686Z,3588.75
2019-06-15T11:38:14.817Z,3695.63
2019-06-15T11:39:15.000Z,3622.50
2019-06-15T11:40:15.193Z,3701.25
2019-06-15T11:41:15.358Z,3628.13
2019-06-15T11:42:15.536Z,877.50
2019-06-15T11:43:15.724Z,3796.88
2019-06-15T11:44:15.903Z,3594.38
2019-06-15T11:45:16.081Z,3414.38
2019-06-15T11:46:16.260Z,3448.13
2019-06-15T11:47:16.437Z,3020.63
2019-06-15T11:48:16.630Z,3526.88
2019-06-15T11:49:16.809Z,3780.00
2019-06-15T11:50:16.985Z,3825.00
2019-06-15T11:51:17.167Z,3785.63
2019-06-15T11:52:17.346Z,3819.38
2019-06-15T11:53:17.525Z,3127.50
2019-06-15T11:54:17.705Z,3667.50
2019-06-15T11:55:19.935Z,3470.63
2019-06-15T11:56:18.071Z,3526.88
2019-06-15T11:57:18.258Z,3560.63
2019-06-15T11:58:18.431Z,2840.63
2019-06-15T11:59:18.613Z,3183.75
2019-06-15T12:00:30.753Z,1901.25
2019-06-15T12:01:19.111Z,3847.50
2019-06-15T12:02:19.168Z,1344.38
2019-06-15T12:03:19.343Z,3555.00
2019-06-15T12:04:19.527Z,3065.63
2019-06-15T12:05:19.710Z,3622.50
2019-06-15T12:06:19.894Z,3301.88
2019-06-15T12:07:20.073Z,3836.25
2019-06-15T12:08:20.255Z,3746.25
2019-06-15T12:09:20.438Z,3172.50
2019-06-15T12:10:20.615Z,3026.25
2019-06-15T12:11:20.797Z,3487.50
2019-06-15T12:12:20.983Z,3588.75
2019-06-15T12:13:21.167Z,3796.88
2019-06-15T12:14:21.349Z,3487.50
2019-06-15T12:15:21.537Z,3622.50
2019-06-15T12:16:21.715Z,3549.38
2019-06-15T12:17:21.897Z,3858.75
2019-06-15T12:18:22.077Z,3701.25
2019-06-15T12:19:22.256Z,3566.25
2019-06-15T12:20:22.438Z,3549.38
2019-06-15T12:21:22.625Z,3757.50
2019-06-15T12:22:22.802Z,3813.75
2019-06-15T12:23:22.987Z,3650.63
2019-06-15T12:24:23.166Z,3296.25
2019-06-15T12:25:23.350Z,3526.88
2019-06-15T12:26:23.532Z,3560.63
2019-06-15T12:27:23.713Z,3864.38
2019-06-15T12:28:23.896Z,3841.88
2019-06-15T12:29:24.077Z,3718.13
2019-06-15T12:30:24.257Z,3965.63
2019-06-15T12:31:24.439Z,3729.38
2019-06-15T12:32:24.621Z,3453.75
2019-06-15T12:33:24.805Z,3678.75
2019-06-15T12:34:24.988Z,3729.38
2019-06-15T12:35:25.171Z,1136.25
2019-06-15T12:36:25.356Z,2812.50
2019-06-15T12:37:25.544Z,4258.13
2019-06-15T12:38:25.713Z,4106.25
2019-06-15T12:39:25.893Z,3915.00
2019-06-15T12:40:26.077Z,3943.13
2019-06-15T12:41:26.255Z,1141.88
2019-06-15T12:42:26.441Z,1237.50
2019-06-15T12:43:26.622Z,1035.00
2019-06-15T12:44:26.806Z,973.13
2019-06-15T12:45:26.997Z,1023.75
2019-06-15T12:46:27.169Z,4320.00
2019-06-15T12:47:27.361Z,4443.75
2019-06-15T12:48:27.528Z,1237.50
2019-06-15T12:49:27.710Z,1344.38
2019-06-15T12:50:27.892Z,3746.25
2019-06-15T12:51:28.076Z,1698.75
2019-06-15T12:52:28.262Z,1603.13
2019-06-15T12:53:28.439Z,3251.25
2019-06-15T12:54:28.617Z,3448.13
2019-06-15T12:55:28.810Z,4500.00
2019-06-15T12:56:28.997Z,4561.88
2019-06-15T12:57:29.167Z,2806.88
2019-06-15T12:58:29.342Z,4286.25
2019-06-15T12:59:29.522Z,4483.13
2019-06-15T13:00:29.707Z,3375.00
2019-06-15T13:01:29.887Z,1642.50
2019-06-15T13:02:30.074Z,4550.63
2019-06-15T13:03:30.255Z,4432.50
2019-06-15T13:04:30.453Z,2137.50
2019-06-15T13:05:30.614Z,1867.50
2019-06-15T13:06:30.795Z,916.88
2019-06-15T13:07:30.970Z,961.88
2019-06-15T13:08:31.151Z,990.00
2019-06-15T13:09:31.342Z,1001.25
2019-06-15T13:10:31.514Z,1029.38
2019-06-15T13:11:31.691Z,1276.88
2019-06-15T13:12:31.873Z,4449.38
2019-06-15T13:13:32.053Z,4342.50
2019-06-15T13:14:32.234Z,4393.13
2019-06-15T13:15:32.418Z,1963.13
2019-06-15T13:16:39.472Z,1321.88
2019-06-15T13:17:32.776Z,1018.13
2019-06-15T13:18:32.957Z,916.88
2019-06-15T13:19:33.136Z,860.63
2019-06-15T13:20:33.319Z,888.75
2019-06-15T13:21:33.495Z,883.13
2019-06-15T13:22:33.730Z,883.13
2019-06-15T13:23:33.863Z,905.63
2019-06-15T13:24:34.040Z,950.63
2019-06-15T13:25:34.215Z,1074.38
2019-06-15T13:26:34.395Z,1524.38
2019-06-15T13:27:34.573Z,3735.00
2019-06-15T13:28:34.757Z,1276.88
2019-06-15T13:29:34.934Z,1749.38
2019-06-15T13:30:35.113Z,3453.75
2019-06-15T13:31:35.294Z,2041.88
2019-06-15T13:32:35.472Z,2992.50
2019-06-15T13:33:35.648Z,3791.25
2019-06-15T13:34:35.829Z,3746.25
2019-06-15T13:35:36.004Z,4522.50
2019-06-15T13:36:36.190Z,4533.75
2019-06-15T13:37:42.025Z,4398.75
2019-06-15T13:38:36.545Z,4556.25
2019-06-15T13:39:36.775Z,3999.38
2019-06-15T13:40:36.905Z,4336.88
2019-06-15T13:41:37.082Z,2160.00
2019-06-15T13:42:37.263Z,1597.50
2019-06-15T13:43:37.443Z,1113.75
2019-06-15T13:44:37.626Z,3633.75
2019-06-15T13:45:37.813Z,3825.00
2019-06-15T13:46:37.993Z,3774.38
2019-06-15T13:47:38.167Z,781.88
2019-06-15T13:48:38.352Z,742.50
2019-06-15T13:49:38.529Z,804.38
2019-06-15T13:50:38.714Z,950.63
2019-06-15T13:51:38.887Z,973.13
2019-06-15T13:52:39.111Z,731.25
2019-06-15T13:53:39.260Z,658.13
2019-06-15T13:54:39.430Z,804.38
2019-06-15T13:55:39.606Z,2677.50
2019-06-15T13:56:39.802Z,3661.88
2019-06-15T13:57:39.969Z,4275.00
2019-06-15T13:58:40.151Z,4224.38
2019-06-15T13:59:40.332Z,4168.13
2019-06-15T14:00:40.515Z,4196.25
2019-06-15T14:01:40.692Z,3931.88
2019-06-15T14:02:40.897Z,4179.38
2019-06-15T14:03:41.051Z,4179.38
2019-06-15T14:04:41.273Z,3982.50
2019-06-15T14:05:41.404Z,4050.00
2019-06-15T14:06:41.579Z,4089.38
2019-06-15T14:07:41.768Z,4027.50
2019-06-15T14:08:41.945Z,4005.00
2019-06-15T14:09:42.132Z,3976.88
2019-06-15T14:10:42.297Z,3948.75
2019-06-15T14:11:42.478Z,3965.63
2019-06-15T14:12:42.672Z,3892.50
2019-06-15T14:13:42.845Z,3898.13
2019-06-15T14:14:43.037Z,3909.38
2019-06-15T14:15:43.211Z,855.00
2019-06-15T14:16:43.392Z,3926.25
2019-06-15T14:17:43.571Z,3999.38
2019-06-15T14:18:43.757Z,568.13
2019-06-15T14:19:43.933Z,3971.25
2019-06-15T14:20:44.113Z,3903.75
2019-06-15T14:21:44.296Z,3892.50
2019-06-15T14:22:44.481Z,3841.88
2019-06-15T14:23:44.670Z,3819.38
2019-06-15T14:24:44.836Z,3915.00
2019-06-15T14:25:45.014Z,894.38
2019-06-15T14:26:45.194Z,1951.88
2019-06-15T14:27:45.376Z,787.50
2019-06-15T14:28:45.559Z,556.88
2019-06-15T14:29:45.744Z,545.63
2019-06-15T14:30:45.922Z,573.75
2019-06-15T14:31:50.009Z,624.38
2019-06-15T14:32:46.284Z,3847.50
2019-06-15T14:33:46.467Z,3825.00
2019-06-15T14:34:46.647Z,3819.38
2019-06-15T14:35:46.857Z,3785.63
2019-06-15T14:36:47.010Z,3802.50
2019-06-15T14:37:47.185Z,3819.38
2019-06-15T14:38:47.371Z,3808.13
2019-06-15T14:39:47.551Z,3780.00
2019-06-15T14:40:47.730Z,3785.63
2019-06-15T14:41:50.977Z,3768.75
2019-06-15T14:42:48.087Z,3470.63
2019-06-15T14:43:48.266Z,3594.38
2019-06-15T14:44:48.469Z,3436.88
2019-06-15T14:45:58.891Z,3369.38
2019-06-15T14:46:48.809Z,3358.13
2019-06-15T14:47:48.990Z,3330.00
2019-06-15T14:48:49.185Z,3273.75
2019-06-15T14:49:49.348Z,3555.00
2019-06-15T14:50:49.532Z,3493.13
2019-06-15T14:51:51.096Z,3487.50
2019-06-15T14:52:49.903Z,3633.75
2019-06-15T14:53:55.514Z,3571.88
2019-06-15T14:54:50.261Z,3543.75
2019-06-15T14:55:50.447Z,3510.00
2019-06-15T14:56:50.626Z,3459.38
2019-06-15T14:57:50.806Z,3465.00
2019-06-15T14:58:50.987Z,3403.13
2019-06-15T14:59:59.858Z,3341.25
2019-06-15T15:00:51.339Z,3301.88
2019-06-15T15:02:06.346Z,3279.38
2019-06-15T15:02:51.712Z,3256.88
2019-06-15T15:03:51.892Z,3138.75
2019-06-15T15:04:52.078Z,3150.00
2019-06-15T15:05:52.260Z,3138.75
2019-06-15T15:06:52.440Z,3138.75
2019-06-15T15:07:52.624Z,3183.75
2019-06-15T15:08:52.809Z,3206.25
2019-06-15T15:09:52.985Z,3217.50
2019-06-15T15:10:53.174Z,3217.50
2019-06-15T15:11:53.456Z,3228.75
2019-06-15T15:12:53.539Z,3217.50
2019-06-15T15:13:56.087Z,3183.75
2019-06-15T15:14:56.272Z,3138.75
2019-06-15T15:15:54.085Z,3183.75
2019-06-15T15:16:56.850Z,3178.13
2019-06-15T15:17:54.444Z,3183.75
2019-06-15T15:18:56.698Z,3133.13
2019-06-15T15:19:57.114Z,3082.50
2019-06-15T15:20:56.468Z,3003.75
2019-06-15T15:21:55.166Z,3009.38
2019-06-15T15:22:56.846Z,2981.25
2019-06-15T15:23:57.109Z,2925.00
2019-06-15T15:24:56.128Z,2868.75
2019-06-15T15:25:57.598Z,2857.50
2019-06-15T15:26:56.067Z,2891.25
2019-06-15T15:27:57.178Z,2851.88
2019-06-15T15:28:56.683Z,2390.63
2019-06-15T15:29:57.161Z,2542.50
2019-06-15T15:30:56.765Z,511.88
2019-06-15T15:31:57.749Z,2227.50
2019-06-15T15:32:57.305Z,2491.88
2019-06-15T15:33:57.313Z,2266.88
2019-06-15T15:34:57.495Z,2289.38
2019-06-15T15:35:57.681Z,1895.63
2019-06-15T15:36:57.858Z,2536.88
2019-06-15T15:37:58.043Z,2446.88
2019-06-15T15:38:58.225Z,2643.75
2019-06-15T15:39:58.406Z,2598.75
2019-06-15T15:40:58.587Z,843.75
2019-06-15T15:41:58.768Z,635.63
2019-06-15T15:42:58.952Z,1012.50
2019-06-15T15:43:59.133Z,2660.63
2019-06-15T15:44:59.337Z,2610.00
2019-06-15T15:45:59.500Z,2486.25
2019-06-15T15:46:59.685Z,2221.88
2019-06-15T15:47:59.870Z,2295.00
2019-06-15T15:49:00.050Z,2351.25
2019-06-15T15:50:00.234Z,2340.00
2019-06-15T15:51:00.410Z,2086.88
2019-06-15T15:52:00.591Z,2193.75
2019-06-15T15:53:00.775Z,1912.50
2019-06-15T15:54:00.961Z,1091.25
2019-06-15T15:55:01.144Z,1732.50
2019-06-15T15:56:01.313Z,2075.63
2019-06-15T15:57:01.529Z,1923.75
2019-06-15T15:58:01.677Z,1473.75
2019-06-15T15:59:01.857Z,1704.38
2019-06-15T16:00:02.040Z,1665.00
2019-06-15T16:01:02.214Z,1372.50
2019-06-15T16:02:02.395Z,810.00
2019-06-15T16:03:02.594Z,1147.50
2019-06-15T16:04:02.774Z,1389.38
2019-06-15T16:05:02.942Z,1136.25
2019-06-15T16:06:03.108Z,731.25
2019-06-15T16:07:03.293Z,753.75
2019-06-15T16:08:03.468Z,911.25
2019-06-15T16:09:06.043Z,641.25
2019-06-15T16:10:06.099Z,517.50
2019-06-15T16:11:04.013Z,478.13
2019-06-15T16:12:04.189Z,528.75
2019-06-15T16:13:06.524Z,506.25
2019-06-15T16:14:06.975Z,776.25
2019-06-15T16:15:07.060Z,1355.63
2019-06-15T16:16:04.909Z,1248.75
2019-06-15T16:17:06.713Z,1119.38
2019-06-15T16:18:06.786Z,1119.38
2019-06-15T16:19:06.538Z,793.13
2019-06-15T16:20:06.596Z,1226.25
2019-06-15T16:21:06.431Z,1783.13
2019-06-15T16:22:05.991Z,1687.50